sensor_id;sensor_type;location;lat;lon;timestamp;temperature;humidity
38514;DHT22;24282;48.400;10.808;2023-05-16T00:02:07;10.00;82.70
38514;DHT22;24282;48.400;10.808;2023-05-16T00:04:34;10.00;82.40
38514;DHT22;24282;48.400;10.808;2023-05-16T00:07:01;9.90;82.50
38514;DHT22;24282;48.400;10.808;2023-05-16T00:09:26;9.90;82.70
38514;DHT22;24282;48.400;10.808;2023-05-16T00:11:52;9.90;82.80
38514;DHT22;24282;48.400;10.808;2023-05-16T00:14:18;9.80;82.90
38514;DHT22;24282;48.400;10.808;2023-05-16T00:16:44;9.80;82.80
38514;DHT22;24282;48.400;10.808;2023-05-16T00:19:10;9.80;82.70
38514;DHT22;24282;48.400;10.808;2023-05-16T00:21:35;9.80;82.80
38514;DHT22;24282;48.400;10.808;2023-05-16T00:24:03;9.80;83.10
38514;DHT22;24282;48.400;10.808;2023-05-16T00:26:29;9.80;83.20
38514;DHT22;24282;48.400;10.808;2023-05-16T00:28:55;9.80;83.50
38514;DHT22;24282;48.400;10.808;2023-05-16T00:31:21;9.70;83.60
38514;DHT22;24282;48.400;10.808;2023-05-16T00:33:47;9.80;83.80
38514;DHT22;24282;48.400;10.808;2023-05-16T00:36:12;9.80;83.90
38514;DHT22;24282;48.400;10.808;2023-05-16T00:38:38;9.80;84.00
38514;DHT22;24282;48.400;10.808;2023-05-16T00:41:04;9.80;83.90
38514;DHT22;24282;48.400;10.808;2023-05-16T00:43:30;9.80;83.70
38514;DHT22;24282;48.400;10.808;2023-05-16T00:45:55;9.80;83.70
38514;DHT22;24282;48.400;10.808;2023-05-16T00:48:22;9.70;83.60
38514;DHT22;24282;48.400;10.808;2023-05-16T00:50:48;9.70;83.60
38514;DHT22;24282;48.400;10.808;2023-05-16T00:53:14;9.70;83.60
38514;DHT22;24282;48.400;10.808;2023-05-16T00:55:41;9.70;83.50
38514;DHT22;24282;48.400;10.808;2023-05-16T00:58:08;9.70;83.40
38514;DHT22;24282;48.400;10.808;2023-05-16T01:00:34;9.70;83.40
38514;DHT22;24282;48.400;10.808;2023-05-16T01:03:00;9.70;83.30
38514;DHT22;24282;48.400;10.808;2023-05-16T01:05:27;9.70;83.30
38514;DHT22;24282;48.400;10.808;2023-05-16T01:07:53;9.70;83.40
38514;DHT22;24282;48.400;10.808;2023-05-16T01:10:19;9.60;83.40
38514;DHT22;24282;48.400;10.808;2023-05-16T01:13:10;9.60;83.40
38514;DHT22;24282;48.400;10.808;2023-05-16T01:15:49;9.50;83.50
38514;DHT22;24282;48.400;10.808;2023-05-16T01:18:40;9.50;83.60
38514;DHT22;24282;48.400;10.808;2023-05-16T01:21:13;9.50;83.60
38514;DHT22;24282;48.400;10.808;2023-05-16T01:26:26;9.50;83.90
38514;DHT22;24282;48.400;10.808;2023-05-16T01:28:53;9.50;84.10
38514;DHT22;24282;48.400;10.808;2023-05-16T01:31:22;9.50;84.00
38514;DHT22;24282;48.400;10.808;2023-05-16T01:33:50;9.50;83.80
38514;DHT22;24282;48.400;10.808;2023-05-16T01:36:24;9.50;84.00
38514;DHT22;24282;48.400;10.808;2023-05-16T01:44:36;9.40;84.20
38514;DHT22;24282;48.400;10.808;2023-05-16T01:47:10;9.40;84.10
38514;DHT22;24282;48.400;10.808;2023-05-16T01:49:44;9.40;84.00
38514;DHT22;24282;48.400;10.808;2023-05-16T01:52:15;9.40;84.00
38514;DHT22;24282;48.400;10.808;2023-05-16T01:54:44;9.40;84.00
38514;DHT22;24282;48.400;10.808;2023-05-16T01:57:12;9.40;83.90
38514;DHT22;24282;48.400;10.808;2023-05-16T01:59:39;9.40;84.00
38514;DHT22;24282;48.400;10.808;2023-05-16T02:02:07;9.40;84.00
38514;DHT22;24282;48.400;10.808;2023-05-16T02:04:33;9.30;84.10
38514;DHT22;24282;48.400;10.808;2023-05-16T02:06:59;9.30;84.30
38514;DHT22;24282;48.400;10.808;2023-05-16T02:09:26;9.30;84.30
38514;DHT22;24282;48.400;10.808;2023-05-16T02:11:52;9.30;84.30
38514;DHT22;24282;48.400;10.808;2023-05-16T02:14:18;9.20;84.00
38514;DHT22;24282;48.400;10.808;2023-05-16T02:16:44;9.20;83.60
38514;DHT22;24282;48.400;10.808;2023-05-16T02:19:09;9.20;83.50
38514;DHT22;24282;48.400;10.808;2023-05-16T02:21:37;9.10;83.50
38514;DHT22;24282;48.400;10.808;2023-05-16T02:24:04;9.10;83.30
38514;DHT22;24282;48.400;10.808;2023-05-16T02:26:30;9.10;83.40
38514;DHT22;24282;48.400;10.808;2023-05-16T02:28:56;9.00;83.50
38514;DHT22;24282;48.400;10.808;2023-05-16T02:31:28;9.00;83.50
38514;DHT22;24282;48.400;10.808;2023-05-16T02:33:55;9.00;83.40
38514;DHT22;24282;48.400;10.808;2023-05-16T02:36:20;8.90;83.40
38514;DHT22;24282;48.400;10.808;2023-05-16T02:38:47;8.90;83.20
38514;DHT22;24282;48.400;10.808;2023-05-16T02:41:13;8.90;83.00
38514;DHT22;24282;48.400;10.808;2023-05-16T02:43:38;8.90;82.90
38514;DHT22;24282;48.400;10.808;2023-05-16T02:46:05;8.80;83.10
38514;DHT22;24282;48.400;10.808;2023-05-16T02:48:44;8.80;83.30
38514;DHT22;24282;48.400;10.808;2023-05-16T02:51:09;8.80;83.50
38514;DHT22;24282;48.400;10.808;2023-05-16T02:53:38;8.80;83.60
38514;DHT22;24282;48.400;10.808;2023-05-16T02:56:04;8.80;83.90
38514;DHT22;24282;48.400;10.808;2023-05-16T02:58:32;8.70;84.20
38514;DHT22;24282;48.400;10.808;2023-05-16T03:00:57;8.80;84.20
38514;DHT22;24282;48.400;10.808;2023-05-16T03:03:23;8.80;84.40
38514;DHT22;24282;48.400;10.808;2023-05-16T03:05:49;8.80;84.40
38514;DHT22;24282;48.400;10.808;2023-05-16T03:08:15;8.80;84.50
38514;DHT22;24282;48.400;10.808;2023-05-16T03:10:41;8.70;84.40
38514;DHT22;24282;48.400;10.808;2023-05-16T03:13:07;8.80;84.40
38514;DHT22;24282;48.400;10.808;2023-05-16T03:15:32;8.80;84.40
38514;DHT22;24282;48.400;10.808;2023-05-16T03:17:58;8.70;84.50
38514;DHT22;24282;48.400;10.808;2023-05-16T03:20:24;8.80;84.50
38514;DHT22;24282;48.400;10.808;2023-05-16T03:22:50;8.70;84.60
38514;DHT22;24282;48.400;10.808;2023-05-16T03:25:15;8.70;84.50
38514;DHT22;24282;48.400;10.808;2023-05-16T03:27:41;8.70;84.50
38514;DHT22;24282;48.400;10.808;2023-05-16T03:30:08;8.80;84.50
38514;DHT22;24282;48.400;10.808;2023-05-16T03:32:34;8.70;84.50
38514;DHT22;24282;48.400;10.808;2023-05-16T03:35:00;8.70;84.60
38514;DHT22;24282;48.400;10.808;2023-05-16T03:37:26;8.70;84.50
38514;DHT22;24282;48.400;10.808;2023-05-16T03:39:52;8.60;84.20
38514;DHT22;24282;48.400;10.808;2023-05-16T03:42:18;8.70;84.30
38514;DHT22;24282;48.400;10.808;2023-05-16T03:44:44;8.60;84.40
38514;DHT22;24282;48.400;10.808;2023-05-16T03:47:10;8.60;84.40
38514;DHT22;24282;48.400;10.808;2023-05-16T03:49:36;8.60;84.50
38514;DHT22;24282;48.400;10.808;2023-05-16T03:52:05;8.60;84.60
38514;DHT22;24282;48.400;10.808;2023-05-16T03:54:31;8.60;84.70
38514;DHT22;24282;48.400;10.808;2023-05-16T03:56:57;8.60;84.80
38514;DHT22;24282;48.400;10.808;2023-05-16T03:59:23;8.60;84.70
38514;DHT22;24282;48.400;10.808;2023-05-16T04:01:49;8.60;84.20
38514;DHT22;24282;48.400;10.808;2023-05-16T04:04:14;8.60;83.90
38514;DHT22;24282;48.400;10.808;2023-05-16T04:06:40;8.60;83.70
38514;DHT22;24282;48.400;10.808;2023-05-16T04:09:09;8.60;83.80
38514;DHT22;24282;48.400;10.808;2023-05-16T04:11:38;8.60;83.80
38514;DHT22;24282;48.400;10.808;2023-05-16T04:14:04;8.60;83.90
38514;DHT22;24282;48.400;10.808;2023-05-16T04:16:29;8.60;84.00
38514;DHT22;24282;48.400;10.808;2023-05-16T04:18:56;8.60;84.00
38514;DHT22;24282;48.400;10.808;2023-05-16T04:21:21;8.60;83.90
38514;DHT22;24282;48.400;10.808;2023-05-16T04:23:47;8.60;84.00
38514;DHT22;24282;48.400;10.808;2023-05-16T04:26:13;8.60;84.10
38514;DHT22;24282;48.400;10.808;2023-05-16T04:28:39;8.60;84.00
38514;DHT22;24282;48.400;10.808;2023-05-16T04:31:05;8.60;84.00
38514;DHT22;24282;48.400;10.808;2023-05-16T04:33:32;8.60;84.10
38514;DHT22;24282;48.400;10.808;2023-05-16T04:35:58;8.70;84.30
38514;DHT22;24282;48.400;10.808;2023-05-16T04:38:25;8.70;84.60
38514;DHT22;24282;48.400;10.808;2023-05-16T04:40:51;8.60;84.50
38514;DHT22;24282;48.400;10.808;2023-05-16T04:43:18;8.70;84.70
38514;DHT22;24282;48.400;10.808;2023-05-16T04:45:44;8.70;84.90
38514;DHT22;24282;48.400;10.808;2023-05-16T04:48:10;8.70;84.90
38514;DHT22;24282;48.400;10.808;2023-05-16T04:50:36;8.80;84.80
38514;DHT22;24282;48.400;10.808;2023-05-16T04:53:02;8.80;84.70
38514;DHT22;24282;48.400;10.808;2023-05-16T04:55:28;8.80;84.60
38514;DHT22;24282;48.400;10.808;2023-05-16T04:57:53;8.80;84.60
38514;DHT22;24282;48.400;10.808;2023-05-16T05:00:19;8.90;84.70
38514;DHT22;24282;48.400;10.808;2023-05-16T05:02:45;8.90;84.80
38514;DHT22;24282;48.400;10.808;2023-05-16T05:05:11;8.90;85.00
38514;DHT22;24282;48.400;10.808;2023-05-16T05:07:37;8.90;85.10
38514;DHT22;24282;48.400;10.808;2023-05-16T05:10:03;9.00;85.10
38514;DHT22;24282;48.400;10.808;2023-05-16T05:12:28;9.00;84.90
38514;DHT22;24282;48.400;10.808;2023-05-16T05:14:55;9.00;84.90
38514;DHT22;24282;48.400;10.808;2023-05-16T05:17:21;9.00;84.80
38514;DHT22;24282;48.400;10.808;2023-05-16T05:19:47;9.00;84.90
38514;DHT22;24282;48.400;10.808;2023-05-16T05:22:13;9.10;85.00
38514;DHT22;24282;48.400;10.808;2023-05-16T05:24:39;9.10;85.00
38514;DHT22;24282;48.400;10.808;2023-05-16T05:27:05;9.10;85.10
38514;DHT22;24282;48.400;10.808;2023-05-16T05:29:31;9.20;85.10
38514;DHT22;24282;48.400;10.808;2023-05-16T05:31:56;9.20;85.00
38514;DHT22;24282;48.400;10.808;2023-05-16T05:34:22;9.20;85.10
38514;DHT22;24282;48.400;10.808;2023-05-16T05:36:48;9.20;85.20
38514;DHT22;24282;48.400;10.808;2023-05-16T05:39:14;9.30;85.30
38514;DHT22;24282;48.400;10.808;2023-05-16T05:41:40;9.30;85.40
38514;DHT22;24282;48.400;10.808;2023-05-16T05:44:06;9.40;85.50
38514;DHT22;24282;48.400;10.808;2023-05-16T05:46:32;9.40;85.60
38514;DHT22;24282;48.400;10.808;2023-05-16T05:48:59;9.50;85.60
38514;DHT22;24282;48.400;10.808;2023-05-16T05:51:25;9.50;85.70
38514;DHT22;24282;48.400;10.808;2023-05-16T05:53:51;9.50;85.70
38514;DHT22;24282;48.400;10.808;2023-05-16T05:56:17;9.60;85.80
38514;DHT22;24282;48.400;10.808;2023-05-16T05:58:43;9.70;85.90
38514;DHT22;24282;48.400;10.808;2023-05-16T06:01:10;9.70;86.00
38514;DHT22;24282;48.400;10.808;2023-05-16T06:03:36;9.80;86.00
38514;DHT22;24282;48.400;10.808;2023-05-16T06:06:03;9.90;86.00
38514;DHT22;24282;48.400;10.808;2023-05-16T06:08:29;9.90;86.10
38514;DHT22;24282;48.400;10.808;2023-05-16T06:10:54;10.00;86.10
38514;DHT22;24282;48.400;10.808;2023-05-16T06:13:20;10.00;86.30
38514;DHT22;24282;48.400;10.808;2023-05-16T06:15:53;10.10;86.50
38514;DHT22;24282;48.400;10.808;2023-05-16T06:18:19;10.20;86.60
38514;DHT22;24282;48.400;10.808;2023-05-16T06:20:45;10.30;86.60
38514;DHT22;24282;48.400;10.808;2023-05-16T06:23:11;10.40;86.70
38514;DHT22;24282;48.400;10.808;2023-05-16T06:25:37;10.40;86.80
38514;DHT22;24282;48.400;10.808;2023-05-16T06:28:03;10.50;86.80
38514;DHT22;24282;48.400;10.808;2023-05-16T06:30:29;10.50;86.60
38514;DHT22;24282;48.400;10.808;2023-05-16T06:32:55;10.60;86.50
38514;DHT22;24282;48.400;10.808;2023-05-16T06:35:20;10.70;86.40
38514;DHT22;24282;48.400;10.808;2023-05-16T06:37:46;10.70;86.20
38514;DHT22;24282;48.400;10.808;2023-05-16T06:40:12;10.70;85.90
38514;DHT22;24282;48.400;10.808;2023-05-16T06:42:38;10.80;85.80
38514;DHT22;24282;48.400;10.808;2023-05-16T06:45:04;10.80;85.50
38514;DHT22;24282;48.400;10.808;2023-05-16T06:47:30;10.90;85.50
38514;DHT22;24282;48.400;10.808;2023-05-16T06:49:56;11.00;85.60
38514;DHT22;24282;48.400;10.808;2023-05-16T06:52:21;11.00;85.60
38514;DHT22;24282;48.400;10.808;2023-05-16T06:54:47;11.10;85.60
38514;DHT22;24282;48.400;10.808;2023-05-16T06:57:13;11.20;85.60
38514;DHT22;24282;48.400;10.808;2023-05-16T06:59:39;11.20;85.80
38514;DHT22;24282;48.400;10.808;2023-05-16T07:02:05;11.40;85.80
38514;DHT22;24282;48.400;10.808;2023-05-16T07:04:31;11.40;85.60
38514;DHT22;24282;48.400;10.808;2023-05-16T07:06:57;11.40;85.10
38514;DHT22;24282;48.400;10.808;2023-05-16T07:09:23;11.50;84.80
38514;DHT22;24282;48.400;10.808;2023-05-16T07:11:49;11.60;84.50
38514;DHT22;24282;48.400;10.808;2023-05-16T07:14:14;11.60;84.40
38514;DHT22;24282;48.400;10.808;2023-05-16T07:16:40;11.70;84.20
38514;DHT22;24282;48.400;10.808;2023-05-16T07:19:06;11.80;84.00
38514;DHT22;24282;48.400;10.808;2023-05-16T07:21:32;11.80;83.80
38514;DHT22;24282;48.400;10.808;2023-05-16T07:23:58;11.90;83.40
38514;DHT22;24282;48.400;10.808;2023-05-16T07:26:24;12.00;83.10
38514;DHT22;24282;48.400;10.808;2023-05-16T07:28:49;12.10;83.00
38514;DHT22;24282;48.400;10.808;2023-05-16T07:31:15;12.20;82.50
38514;DHT22;24282;48.400;10.808;2023-05-16T07:33:42;12.20;82.40
38514;DHT22;24282;48.400;10.808;2023-05-16T07:36:09;12.30;82.50
38514;DHT22;24282;48.400;10.808;2023-05-16T07:38:35;12.40;82.40
38514;DHT22;24282;48.400;10.808;2023-05-16T07:41:00;12.50;82.60
38514;DHT22;24282;48.400;10.808;2023-05-16T07:43:26;12.60;82.80
38514;DHT22;24282;48.400;10.808;2023-05-16T07:45:52;12.70;82.50
38514;DHT22;24282;48.400;10.808;2023-05-16T07:48:18;12.80;82.10
38514;DHT22;24282;48.400;10.808;2023-05-16T07:50:43;12.90;81.40
38514;DHT22;24282;48.400;10.808;2023-05-16T07:53:09;12.90;81.00
38514;DHT22;24282;48.400;10.808;2023-05-16T07:55:35;12.90;81.10
38514;DHT22;24282;48.400;10.808;2023-05-16T07:58:01;13.00;80.80
38514;DHT22;24282;48.400;10.808;2023-05-16T08:00:27;13.00;80.40
38514;DHT22;24282;48.400;10.808;2023-05-16T08:02:53;13.00;80.10
38514;DHT22;24282;48.400;10.808;2023-05-16T08:05:19;13.10;79.70
38514;DHT22;24282;48.400;10.808;2023-05-16T08:07:45;13.10;79.70
38514;DHT22;24282;48.400;10.808;2023-05-16T08:10:10;13.20;79.40
38514;DHT22;24282;48.400;10.808;2023-05-16T08:12:36;13.20;78.50
38514;DHT22;24282;48.400;10.808;2023-05-16T08:15:03;13.20;78.60
38514;DHT22;24282;48.400;10.808;2023-05-16T08:17:29;13.20;78.70
38514;DHT22;24282;48.400;10.808;2023-05-16T08:19:55;13.30;78.80
38514;DHT22;24282;48.400;10.808;2023-05-16T08:22:21;13.30;79.10
38514;DHT22;24282;48.400;10.808;2023-05-16T08:24:46;13.40;79.00
38514;DHT22;24282;48.400;10.808;2023-05-16T08:27:12;13.40;78.90
38514;DHT22;24282;48.400;10.808;2023-05-16T08:29:38;13.40;79.00
38514;DHT22;24282;48.400;10.808;2023-05-16T08:32:04;13.50;78.70
38514;DHT22;24282;48.400;10.808;2023-05-16T08:34:30;13.50;78.40
38514;DHT22;24282;48.400;10.808;2023-05-16T08:36:56;13.50;78.60
38514;DHT22;24282;48.400;10.808;2023-05-16T08:39:22;13.50;78.80
38514;DHT22;24282;48.400;10.808;2023-05-16T08:41:48;13.50;79.20
38514;DHT22;24282;48.400;10.808;2023-05-16T08:44:14;13.50;79.40
38514;DHT22;24282;48.400;10.808;2023-05-16T08:46:50;13.50;79.50
38514;DHT22;24282;48.400;10.808;2023-05-16T08:49:17;13.60;79.40
38514;DHT22;24282;48.400;10.808;2023-05-16T08:51:45;13.60;78.80
38514;DHT22;24282;48.400;10.808;2023-05-16T08:54:12;13.70;78.30
38514;DHT22;24282;48.400;10.808;2023-05-16T08:56:40;13.70;78.20
38514;DHT22;24282;48.400;10.808;2023-05-16T08:59:06;13.70;78.70
38514;DHT22;24282;48.400;10.808;2023-05-16T09:01:33;13.70;78.80
38514;DHT22;24282;48.400;10.808;2023-05-16T09:03:59;13.80;78.30
38514;DHT22;24282;48.400;10.808;2023-05-16T09:06:26;13.80;78.20
38514;DHT22;24282;48.400;10.808;2023-05-16T09:08:55;13.80;77.90
38514;DHT22;24282;48.400;10.808;2023-05-16T09:11:21;13.80;78.20
38514;DHT22;24282;48.400;10.808;2023-05-16T09:13:47;13.80;78.50
38514;DHT22;24282;48.400;10.808;2023-05-16T09:16:16;13.90;78.70
38514;DHT22;24282;48.400;10.808;2023-05-16T09:18:44;13.90;78.60
38514;DHT22;24282;48.400;10.808;2023-05-16T09:21:11;13.90;78.40
38514;DHT22;24282;48.400;10.808;2023-05-16T09:23:37;13.90;78.00
38514;DHT22;24282;48.400;10.808;2023-05-16T09:26:06;14.00;78.20
38514;DHT22;24282;48.400;10.808;2023-05-16T09:28:37;14.00;78.00
38514;DHT22;24282;48.400;10.808;2023-05-16T09:31:03;14.00;78.00
38514;DHT22;24282;48.400;10.808;2023-05-16T09:33:29;14.00;77.90
38514;DHT22;24282;48.400;10.808;2023-05-16T09:35:59;14.10;77.70
38514;DHT22;24282;48.400;10.808;2023-05-16T09:38:26;14.10;77.60
38514;DHT22;24282;48.400;10.808;2023-05-16T09:40:55;14.10;77.30
38514;DHT22;24282;48.400;10.808;2023-05-16T09:43:25;14.20;77.50
38514;DHT22;24282;48.400;10.808;2023-05-16T09:45:52;14.30;77.50
38514;DHT22;24282;48.400;10.808;2023-05-16T09:48:18;14.40;77.30
38514;DHT22;24282;48.400;10.808;2023-05-16T09:50:47;14.50;77.10
38514;DHT22;24282;48.400;10.808;2023-05-16T09:53:14;14.70;77.40
38514;DHT22;24282;48.400;10.808;2023-05-16T09:55:40;14.80;76.60
38514;DHT22;24282;48.400;10.808;2023-05-16T09:58:05;15.00;76.20
38514;DHT22;24282;48.400;10.808;2023-05-16T10:00:32;15.20;76.10
38514;DHT22;24282;48.400;10.808;2023-05-16T10:03:00;15.40;74.70
38514;DHT22;24282;48.400;10.808;2023-05-16T10:05:26;15.50;73.80
38514;DHT22;24282;48.400;10.808;2023-05-16T10:07:54;15.70;73.00
38514;DHT22;24282;48.400;10.808;2023-05-16T10:10:21;15.80;71.90
38514;DHT22;24282;48.400;10.808;2023-05-16T10:12:47;15.80;71.30
38514;DHT22;24282;48.400;10.808;2023-05-16T10:15:15;15.80;71.60
38514;DHT22;24282;48.400;10.808;2023-05-16T10:17:42;15.80;71.90
38514;DHT22;24282;48.400;10.808;2023-05-16T10:20:11;15.80;71.90
38514;DHT22;24282;48.400;10.808;2023-05-16T10:22:42;15.70;72.00
38514;DHT22;24282;48.400;10.808;2023-05-16T10:25:25;15.60;71.70
38514;DHT22;24282;48.400;10.808;2023-05-16T10:27:53;15.50;72.00
38514;DHT22;24282;48.400;10.808;2023-05-16T10:30:20;15.50;71.60
38514;DHT22;24282;48.400;10.808;2023-05-16T10:32:46;15.40;71.30
38514;DHT22;24282;48.400;10.808;2023-05-16T10:35:13;15.40;71.50
38514;DHT22;24282;48.400;10.808;2023-05-16T10:37:39;15.40;71.90
38514;DHT22;24282;48.400;10.808;2023-05-16T10:40:07;15.40;72.20
38514;DHT22;24282;48.400;10.808;2023-05-16T10:42:34;15.40;72.30
38514;DHT22;24282;48.400;10.808;2023-05-16T10:45:29;15.40;71.60
38514;DHT22;24282;48.400;10.808;2023-05-16T10:47:56;15.40;71.60
38514;DHT22;24282;48.400;10.808;2023-05-16T10:50:41;15.40;71.50
38514;DHT22;24282;48.400;10.808;2023-05-16T10:53:20;15.50;72.70
38514;DHT22;24282;48.400;10.808;2023-05-16T11:01:30;15.50;72.00
38514;DHT22;24282;48.400;10.808;2023-05-16T11:06:27;15.40;71.90
38514;DHT22;24282;48.400;10.808;2023-05-16T11:14:09;15.30;72.80
38514;DHT22;24282;48.400;10.808;2023-05-16T11:16:50;15.20;73.60
38514;DHT22;24282;48.400;10.808;2023-05-16T11:24:31;15.00;76.50
38514;DHT22;24282;48.400;10.808;2023-05-16T11:27:01;15.00;77.20
38514;DHT22;24282;48.400;10.808;2023-05-16T11:29:34;14.90;77.20
38514;DHT22;24282;48.400;10.808;2023-05-16T11:32:03;14.90;76.90
38514;DHT22;24282;48.400;10.808;2023-05-16T11:34:34;14.90;77.10
38514;DHT22;24282;48.400;10.808;2023-05-16T11:37:02;14.90;77.10
38514;DHT22;24282;48.400;10.808;2023-05-16T11:39:30;14.80;76.70
38514;DHT22;24282;48.400;10.808;2023-05-16T11:41:56;14.80;77.20
38514;DHT22;24282;48.400;10.808;2023-05-16T11:44:21;14.70;78.10
38514;DHT22;24282;48.400;10.808;2023-05-16T11:46:47;14.70;78.90
38514;DHT22;24282;48.400;10.808;2023-05-16T11:49:13;14.70;79.50
38514;DHT22;24282;48.400;10.808;2023-05-16T11:51:43;14.60;80.00
38514;DHT22;24282;48.400;10.808;2023-05-16T11:54:09;14.50;80.50
38514;DHT22;24282;48.400;10.808;2023-05-16T11:56:35;14.50;81.00
38514;DHT22;24282;48.400;10.808;2023-05-16T11:59:02;14.50;79.40
38514;DHT22;24282;48.400;10.808;2023-05-16T12:01:34;14.50;78.90
38514;DHT22;24282;48.400;10.808;2023-05-16T12:04:01;14.40;79.80
38514;DHT22;24282;48.400;10.808;2023-05-16T12:06:26;14.40;79.70
38514;DHT22;24282;48.400;10.808;2023-05-16T12:08:53;14.30;79.70
38514;DHT22;24282;48.400;10.808;2023-05-16T12:11:21;14.20;79.90
38514;DHT22;24282;48.400;10.808;2023-05-16T12:13:47;14.30;79.70
38514;DHT22;24282;48.400;10.808;2023-05-16T12:16:13;14.20;79.80
38514;DHT22;24282;48.400;10.808;2023-05-16T12:18:39;14.10;80.20
38514;DHT22;24282;48.400;10.808;2023-05-16T12:21:05;14.00;81.20
38514;DHT22;24282;48.400;10.808;2023-05-16T12:23:34;13.90;81.90
38514;DHT22;24282;48.400;10.808;2023-05-16T12:26:02;13.90;82.30
38514;DHT22;24282;48.400;10.808;2023-05-16T12:28:32;13.80;82.30
38514;DHT22;24282;48.400;10.808;2023-05-16T12:30:59;13.60;82.90
38514;DHT22;24282;48.400;10.808;2023-05-16T12:33:25;13.60;82.50
38514;DHT22;24282;48.400;10.808;2023-05-16T12:35:52;13.50;83.10
38514;DHT22;24282;48.400;10.808;2023-05-16T12:38:19;13.40;83.30
38514;DHT22;24282;48.400;10.808;2023-05-16T12:40:46;13.40;83.40
38514;DHT22;24282;48.400;10.808;2023-05-16T12:43:22;13.30;83.50
38514;DHT22;24282;48.400;10.808;2023-05-16T12:45:51;13.10;84.10
38514;DHT22;24282;48.400;10.808;2023-05-16T12:48:17;13.10;84.70
38514;DHT22;24282;48.400;10.808;2023-05-16T12:50:43;13.00;85.20
38514;DHT22;24282;48.400;10.808;2023-05-16T12:53:15;13.00;85.70
38514;DHT22;24282;48.400;10.808;2023-05-16T12:55:42;12.90;86.50
38514;DHT22;24282;48.400;10.808;2023-05-16T12:58:10;12.90;86.80
38514;DHT22;24282;48.400;10.808;2023-05-16T13:00:36;12.90;87.00
38514;DHT22;24282;48.400;10.808;2023-05-16T13:03:03;12.90;86.90
38514;DHT22;24282;48.400;10.808;2023-05-16T13:05:29;12.80;86.80
38514;DHT22;24282;48.400;10.808;2023-05-16T13:07:55;12.70;86.50
38514;DHT22;24282;48.400;10.808;2023-05-16T13:10:20;12.70;86.00
38514;DHT22;24282;48.400;10.808;2023-05-16T13:12:46;12.60;86.10
38514;DHT22;24282;48.400;10.808;2023-05-16T13:15:12;12.60;86.40
38514;DHT22;24282;48.400;10.808;2023-05-16T13:17:40;12.50;86.40
38514;DHT22;24282;48.400;10.808;2023-05-16T13:20:06;12.50;86.50
38514;DHT22;24282;48.400;10.808;2023-05-16T13:22:38;12.50;86.30
38514;DHT22;24282;48.400;10.808;2023-05-16T13:25:04;12.50;86.40
38514;DHT22;24282;48.400;10.808;2023-05-16T13:27:31;12.50;86.40
38514;DHT22;24282;48.400;10.808;2023-05-16T13:29:57;12.40;86.20
38514;DHT22;24282;48.400;10.808;2023-05-16T13:32:23;12.40;86.20
38514;DHT22;24282;48.400;10.808;2023-05-16T13:34:49;12.50;84.50
38514;DHT22;24282;48.400;10.808;2023-05-16T13:37:16;12.40;84.20
38514;DHT22;24282;48.400;10.808;2023-05-16T13:39:42;12.40;84.60
38514;DHT22;24282;48.400;10.808;2023-05-16T13:42:07;12.40;85.20
38514;DHT22;24282;48.400;10.808;2023-05-16T13:44:33;12.30;83.70
38514;DHT22;24282;48.400;10.808;2023-05-16T13:46:59;12.30;84.10
38514;DHT22;24282;48.400;10.808;2023-05-16T13:49:25;12.20;85.10
38514;DHT22;24282;48.400;10.808;2023-05-16T13:51:51;12.20;84.80
38514;DHT22;24282;48.400;10.808;2023-05-16T13:54:18;12.10;84.50
38514;DHT22;24282;48.400;10.808;2023-05-16T13:56:44;12.00;84.90
38514;DHT22;24282;48.400;10.808;2023-05-16T13:59:10;11.90;85.30
38514;DHT22;24282;48.400;10.808;2023-05-16T14:01:36;11.90;85.70
38514;DHT22;24282;48.400;10.808;2023-05-16T14:04:02;11.90;86.20
38514;DHT22;24282;48.400;10.808;2023-05-16T14:06:27;11.80;86.80
38514;DHT22;24282;48.400;10.808;2023-05-16T14:08:53;11.80;86.90
38514;DHT22;24282;48.400;10.808;2023-05-16T14:11:19;11.80;86.90
38514;DHT22;24282;48.400;10.808;2023-05-16T14:13:47;11.90;87.20
38514;DHT22;24282;48.400;10.808;2023-05-16T14:16:14;11.80;87.30
38514;DHT22;24282;48.400;10.808;2023-05-16T14:18:39;11.80;87.50
38514;DHT22;24282;48.400;10.808;2023-05-16T14:21:05;11.90;87.20
38514;DHT22;24282;48.400;10.808;2023-05-16T14:23:31;11.80;86.80
38514;DHT22;24282;48.400;10.808;2023-05-16T14:25:56;11.80;86.80
38514;DHT22;24282;48.400;10.808;2023-05-16T14:28:22;11.90;86.90
38514;DHT22;24282;48.400;10.808;2023-05-16T14:30:48;11.80;86.90
38514;DHT22;24282;48.400;10.808;2023-05-16T14:33:14;11.80;86.90
38514;DHT22;24282;48.400;10.808;2023-05-16T14:35:39;11.80;86.90
38514;DHT22;24282;48.400;10.808;2023-05-16T14:38:05;11.80;86.70
38514;DHT22;24282;48.400;10.808;2023-05-16T14:40:32;11.80;86.80
38514;DHT22;24282;48.400;10.808;2023-05-16T14:42:58;11.80;87.00
38514;DHT22;24282;48.400;10.808;2023-05-16T14:45:24;11.80;87.20
38514;DHT22;24282;48.400;10.808;2023-05-16T14:47:50;11.80;87.10
38514;DHT22;24282;48.400;10.808;2023-05-16T14:50:17;11.70;87.20
38514;DHT22;24282;48.400;10.808;2023-05-16T14:52:42;11.70;87.00
38514;DHT22;24282;48.400;10.808;2023-05-16T14:55:09;11.80;87.00
38514;DHT22;24282;48.400;10.808;2023-05-16T14:57:35;11.70;87.10
38514;DHT22;24282;48.400;10.808;2023-05-16T15:00:01;11.70;87.10
38514;DHT22;24282;48.400;10.808;2023-05-16T15:02:27;11.70;87.20
38514;DHT22;24282;48.400;10.808;2023-05-16T15:04:53;11.70;87.20
38514;DHT22;24282;48.400;10.808;2023-05-16T15:07:19;11.70;87.40
38514;DHT22;24282;48.400;10.808;2023-05-16T15:09:45;11.70;87.50
38514;DHT22;24282;48.400;10.808;2023-05-16T15:12:11;11.70;87.70
38514;DHT22;24282;48.400;10.808;2023-05-16T15:14:43;11.70;87.80
38514;DHT22;24282;48.400;10.808;2023-05-16T15:18:12;11.70;87.80
38514;DHT22;24282;48.400;10.808;2023-05-16T15:20:47;11.70;87.90
38514;DHT22;24282;48.400;10.808;2023-05-16T15:23:13;11.70;88.00
38514;DHT22;24282;48.400;10.808;2023-05-16T15:25:38;11.70;88.10
38514;DHT22;24282;48.400;10.808;2023-05-16T15:28:04;11.80;88.30
38514;DHT22;24282;48.400;10.808;2023-05-16T15:30:30;11.70;88.30
38514;DHT22;24282;48.400;10.808;2023-05-16T15:32:55;11.80;88.30
38514;DHT22;24282;48.400;10.808;2023-05-16T15:35:21;11.80;88.30
38514;DHT22;24282;48.400;10.808;2023-05-16T15:37:47;11.80;88.40
38514;DHT22;24282;48.400;10.808;2023-05-16T15:40:13;11.80;88.40
38514;DHT22;24282;48.400;10.808;2023-05-16T15:42:38;11.80;88.40
38514;DHT22;24282;48.400;10.808;2023-05-16T15:45:07;11.80;88.50
38514;DHT22;24282;48.400;10.808;2023-05-16T15:47:33;11.80;88.60
38514;DHT22;24282;48.400;10.808;2023-05-16T15:49:58;11.90;88.30